createdAt,value
2022-09-24T00:01:38.613Z,75.16
2022-09-24T00:04:12.064Z,75.32
2022-09-24T00:06:47.611Z,74.80
2022-09-24T00:09:19.162Z,75.26
2022-09-24T00:11:46.090Z,74.49
2022-09-24T00:14:13.622Z,74.42
2022-09-24T00:16:42.519Z,74.64
2022-09-24T00:19:12.130Z,75.27
2022-09-24T00:21:40.590Z,75.38
2022-09-24T00:24:32.905Z,76.12
2022-09-24T00:27:00.624Z,76.45
2022-09-24T00:29:27.857Z,76.89
2022-09-24T00:31:54.888Z,77.46
2022-09-24T00:34:21.966Z,77.01
2022-09-24T00:36:49.018Z,77.30
2022-09-24T00:39:16.684Z,77.03
2022-09-24T00:41:47.057Z,77.19
2022-09-24T00:44:48.786Z,77.16
2022-09-24T00:47:36.409Z,77.86
2022-09-24T00:50:31.927Z,77.61
2022-09-24T00:53:05.009Z,77.98
2022-09-24T00:55:34.456Z,78.00
2022-09-24T00:58:07.255Z,78.24
2022-09-24T01:00:37.420Z,78.17
2022-09-24T01:03:23.086Z,78.41
2022-09-24T01:05:50.676Z,78.60
2022-09-24T01:08:19.583Z,78.91
2022-09-24T01:11:29.517Z,78.93
2022-09-24T01:14:28.416Z,79.13
2022-09-24T01:17:36.113Z,79.27
2022-09-24T01:20:36.509Z,79.23
2022-09-24T01:23:31.192Z,78.97
2022-09-24T01:26:39.654Z,79.62
2022-09-24T01:30:00.234Z,79.88
2022-09-24T01:32:42.233Z,79.63
2022-09-24T01:35:27.432Z,80.12
2022-09-24T01:38:06.763Z,80.27
2022-09-24T01:40:34.647Z,80.21
2022-09-24T01:43:03.861Z,80.33
2022-09-24T01:45:32.851Z,79.97
2022-09-24T01:48:01.133Z,79.70
2022-09-24T01:50:33.428Z,79.50
2022-09-24T01:53:18.643Z,80.56
2022-09-24T01:55:56.933Z,80.52
2022-09-24T01:58:33.707Z,81.53
2022-09-24T02:01:08.831Z,81.97
2022-09-24T02:03:45.687Z,82.19
2022-09-24T02:06:22.981Z,81.86
2022-09-24T02:08:49.790Z,82.58
2022-09-24T02:11:23.264Z,81.98
2022-09-24T02:14:07.795Z,81.78
2022-09-24T02:16:48.241Z,82.04
2022-09-24T02:19:21.954Z,81.81
2022-09-24T02:21:51.120Z,81.17
2022-09-24T02:24:21.094Z,81.57
2022-09-24T02:26:48.146Z,81.58
2022-09-24T02:29:15.237Z,82.02
2022-09-24T02:31:47.945Z,81.76
2022-09-24T02:34:38.793Z,81.65
2022-09-24T02:37:09.656Z,82.47
2022-09-24T02:39:36.552Z,81.90
2022-09-24T02:42:06.275Z,81.27
2022-09-24T02:44:33.909Z,81.82
2022-09-24T02:47:00.958Z,81.22
2022-09-24T02:49:28.183Z,81.04
2022-09-24T02:51:55.753Z,81.53
2022-09-24T02:54:23.862Z,81.30
2022-09-24T02:56:51.948Z,81.03
2022-09-24T02:59:19.242Z,81.86
2022-09-24T03:01:46.469Z,81.57
2022-09-24T03:04:14.048Z,81.42
2022-09-24T03:06:40.854Z,81.67
2022-09-24T03:09:07.769Z,81.81
2022-09-24T03:11:35.665Z,82.18
2022-09-24T03:14:02.642Z,83.20
2022-09-24T03:16:29.665Z,82.84
2022-09-24T03:18:56.534Z,82.63
2022-09-24T03:21:23.536Z,82.41
2022-09-24T03:23:50.520Z,82.30
2022-09-24T03:26:17.931Z,82.12
2022-09-24T03:28:44.971Z,82.13
2022-09-24T03:31:12.410Z,83.45
2022-09-24T03:33:46.158Z,82.97
2022-09-24T03:36:33.219Z,83.20
2022-09-24T03:39:00.067Z,83.48
2022-09-24T03:41:28.286Z,84.30
2022-09-24T03:43:56.127Z,84.55
2022-09-24T03:46:29.794Z,83.82
2022-09-24T03:48:59.212Z,84.39
2022-09-24T03:51:26.049Z,84.22
2022-09-24T03:53:52.924Z,85.30
2022-09-24T03:56:19.778Z,84.34
2022-09-24T03:58:47.934Z,84.64
2022-09-24T04:01:20.471Z,84.71
2022-09-24T04:03:49.237Z,85.35
2022-09-24T04:06:16.506Z,84.55
2022-09-24T04:08:44.679Z,85.61
2022-09-24T04:11:11.457Z,84.86
2022-09-24T04:13:38.270Z,84.62
2022-09-24T04:16:05.450Z,84.20
2022-09-24T04:18:36.939Z,83.57
2022-09-24T04:21:06.043Z,84.26
2022-09-24T04:23:33.009Z,83.98
2022-09-24T04:26:03.108Z,83.34
2022-09-24T04:28:30.956Z,82.67
2022-09-24T04:30:58.427Z,82.19
2022-09-24T04:33:25.670Z,81.82
2022-09-24T04:35:52.566Z,82.10
2022-09-24T04:38:21.183Z,82.01
2022-09-24T04:40:48.656Z,81.90
2022-09-24T04:43:15.652Z,81.69
2022-09-24T04:45:45.739Z,81.55
2022-09-24T04:48:13.296Z,82.60
2022-09-24T04:50:45.549Z,82.23
2022-09-24T04:53:13.063Z,81.36
2022-09-24T04:55:41.468Z,81.61
2022-09-24T04:58:08.414Z,80.97
2022-09-24T05:00:35.226Z,81.44
2022-09-24T05:03:05.465Z,80.50
2022-09-24T05:05:34.702Z,81.02
2022-09-24T05:08:02.471Z,81.36
2022-09-24T05:10:31.642Z,81.81
2022-09-24T05:12:59.027Z,81.20
2022-09-24T05:15:25.865Z,80.70
2022-09-24T05:17:52.802Z,80.38
2022-09-24T05:20:19.783Z,80.84
2022-09-24T05:22:49.414Z,80.38
2022-09-24T05:25:18.346Z,81.24
2022-09-24T05:27:51.612Z,81.50
2022-09-24T05:30:20.684Z,81.66
2022-09-24T05:32:52.384Z,81.25
2022-09-24T05:35:22.898Z,81.45
2022-09-24T05:37:53.082Z,81.20
2022-09-24T05:40:38.387Z,80.19
2022-09-24T05:43:05.364Z,78.93
2022-09-24T05:45:32.651Z,76.68
2022-09-24T05:48:00.087Z,76.10
2022-09-24T05:50:27.427Z,75.74
2022-09-24T05:52:54.835Z,75.59
2022-09-24T05:55:21.669Z,75.66
2022-09-24T05:57:48.963Z,75.53
2022-09-24T06:00:16.030Z,75.20
2022-09-24T06:02:42.879Z,74.65
2022-09-24T06:05:10.611Z,74.42
2022-09-24T06:07:37.396Z,73.21
2022-09-24T06:10:07.313Z,71.13
2022-09-24T06:12:37.035Z,69.45
2022-09-24T06:15:04.890Z,69.19
2022-09-24T06:17:32.390Z,69.00
2022-09-24T06:19:59.504Z,68.84
2022-09-24T06:22:28.942Z,68.99
2022-09-24T06:24:56.104Z,69.17
2022-09-24T06:27:22.954Z,69.51
2022-09-24T06:29:49.738Z,69.62
2022-09-24T06:32:18.106Z,70.24
2022-09-24T06:34:45.308Z,70.14
2022-09-24T06:37:12.121Z,69.35
2022-09-24T06:39:38.893Z,69.08
2022-09-24T06:42:07.053Z,68.52
2022-09-24T06:44:34.598Z,66.11
2022-09-24T06:47:01.710Z,62.83
2022-09-24T06:49:33.760Z,62.40
2022-09-24T06:52:01.837Z,61.69
2022-09-24T06:54:28.731Z,59.35
2022-09-24T06:56:55.507Z,56.70
2022-09-24T06:59:22.371Z,55.94
2022-09-24T07:01:49.184Z,56.89
2022-09-24T07:04:16.153Z,57.84
2022-09-24T07:07:01.606Z,59.82
2022-09-24T07:09:28.518Z,61.51
2022-09-24T07:11:56.880Z,62.04
2022-09-24T07:14:23.694Z,62.20
2022-09-24T07:16:50.509Z,62.13
2022-09-24T07:19:17.432Z,62.03
2022-09-24T07:21:44.224Z,62.06
2022-09-24T07:24:10.994Z,63.04
2022-09-24T07:26:37.805Z,63.19
2022-09-24T07:29:04.827Z,63.39
2022-09-24T07:31:31.728Z,64.12
2022-09-24T07:33:58.608Z,63.60
2022-09-24T07:36:25.428Z,63.17
2022-09-24T07:38:52.220Z,63.18
2022-09-24T07:41:19.344Z,62.70
2022-09-24T07:43:46.140Z,62.62
2022-09-24T07:46:12.995Z,62.56
2022-09-24T07:48:39.845Z,62.79
2022-09-24T07:51:10.513Z,63.06
2022-09-24T07:53:38.131Z,63.34
2022-09-24T07:56:05.102Z,63.86
2022-09-24T07:58:31.954Z,63.67
2022-09-24T08:01:00.494Z,64.23
2022-09-24T08:03:27.795Z,64.02
2022-09-24T08:05:59.718Z,63.74
2022-09-24T08:08:26.622Z,63.56
2022-09-24T08:10:54.054Z,63.68
2022-09-24T08:13:26.729Z,62.50
2022-09-24T08:16:02.027Z,61.59
2022-09-24T08:18:31.734Z,59.96
2022-09-24T08:21:11.762Z,59.10
2022-09-24T08:23:43.456Z,58.20
2022-09-24T08:26:13.087Z,56.88
2022-09-24T08:28:41.918Z,56.92
2022-09-24T08:31:12.320Z,56.21
2022-09-24T08:33:39.768Z,55.93
2022-09-24T08:36:09.609Z,55.49
2022-09-24T08:38:36.594Z,55.58
2022-09-24T08:41:32.989Z,56.77
2022-09-24T08:44:06.410Z,57.84
2022-09-24T08:47:00.779Z,58.71
2022-09-24T08:49:41.882Z,60.21
2022-09-24T08:52:27.012Z,60.64
2022-09-24T08:55:02.102Z,61.14
2022-09-24T08:57:29.306Z,61.02
2022-09-24T08:59:56.168Z,60.19
2022-09-24T09:02:55.572Z,58.92
2022-09-24T09:05:49.506Z,58.31
2022-09-24T09:09:01.233Z,57.82
2022-09-24T09:11:24.995Z,57.24
2022-09-24T09:14:20.699Z,55.70
2022-09-24T09:17:03.152Z,52.37
2022-09-24T09:19:39.315Z,43.58
2022-09-24T09:22:15.798Z,41.62
2022-09-24T09:24:50.441Z,40.92
2022-09-24T09:27:19.644Z,36.82
2022-09-24T09:29:51.786Z,36.10
2022-09-24T09:32:58.061Z,33.19
2022-09-24T09:35:47.906Z,32.48
2022-09-24T09:38:38.615Z,35.60
2022-09-24T09:41:26.744Z,38.44
2022-09-24T09:44:12.170Z,38.14
2022-09-24T09:46:48.115Z,37.64
2022-09-24T09:49:15.436Z,38.31
2022-09-24T09:51:46.720Z,39.44
2022-09-24T09:54:13.542Z,41.51
2022-09-24T09:56:48.248Z,43.46
2022-09-24T09:59:27.343Z,43.55
2022-09-24T10:01:57.511Z,43.56
2022-09-24T10:04:41.324Z,44.81
2022-09-24T10:07:17.086Z,45.29
2022-09-24T10:09:46.616Z,44.17
2022-09-24T10:12:22.510Z,43.91
2022-09-24T10:15:12.713Z,45.00
2022-09-24T10:17:40.350Z,45.54
2022-09-24T10:20:23.239Z,48.58
2022-09-24T10:23:01.649Z,49.71
2022-09-24T10:25:30.851Z,52.16
2022-09-24T10:28:19.059Z,51.99
2022-09-24T10:31:12.440Z,51.82
2022-09-24T10:33:42.278Z,52.08
2022-09-24T10:36:32.539Z,52.56
2022-09-24T10:39:15.204Z,53.24
2022-09-24T10:41:54.696Z,54.82
2022-09-24T10:44:21.866Z,53.80
2022-09-24T10:47:10.440Z,52.79
2022-09-24T10:50:01.054Z,51.80
2022-09-24T10:52:44.844Z,52.05
2022-09-24T10:55:55.507Z,52.27
2022-09-24T10:59:07.615Z,51.44
2022-09-24T11:01:49.188Z,50.26
2022-09-24T11:04:40.233Z,49.85
2022-09-24T11:07:37.469Z,49.21
2022-09-24T11:10:17.898Z,48.20
2022-09-24T11:13:16.329Z,46.47
2022-09-24T11:16:05.816Z,47.54
2022-09-24T11:18:57.606Z,50.16
2022-09-24T11:21:37.475Z,50.92
2022-09-24T11:24:07.015Z,51.14
2022-09-24T11:27:04.748Z,50.89
2022-09-24T11:30:08.719Z,50.64
2022-09-24T11:33:06.135Z,50.21
2022-09-24T11:36:04.517Z,50.73
2022-09-24T11:39:04.570Z,51.08
2022-09-24T11:41:52.373Z,52.10
2022-09-24T11:44:58.299Z,51.73
2022-09-24T11:48:19.761Z,51.22
2022-09-24T11:51:14.702Z,52.02
2022-09-24T11:54:07.855Z,52.67
2022-09-24T11:56:43.412Z,53.34
2022-09-24T11:59:56.879Z,54.63
2022-09-24T12:02:38.323Z,55.57
2022-09-24T12:05:32.563Z,54.04
2022-09-24T12:08:02.385Z,54.10
2022-09-24T12:10:46.809Z,54.10
2022-09-24T12:13:20.884Z,54.15
2022-09-24T12:16:13.452Z,55.19
2022-09-24T12:18:59.057Z,55.30
2022-09-24T12:21:32.591Z,55.86
2022-09-24T12:24:24.927Z,55.56
2022-09-24T12:26:53.780Z,55.82
2022-09-24T12:30:15.971Z,56.33
2022-09-24T12:33:12.063Z,56.56
2022-09-24T12:36:04.458Z,55.34
2022-09-24T12:39:02.630Z,55.52
2022-09-24T12:41:43.336Z,55.03
2022-09-24T12:44:19.654Z,55.81
2022-09-24T12:46:58.174Z,55.49
2022-09-24T12:49:25.071Z,55.45
2022-09-24T12:52:15.628Z,54.83
2022-09-24T12:54:44.066Z,54.08
2022-09-24T12:57:24.988Z,54.68
2022-09-24T12:59:55.031Z,55.22
2022-09-24T13:02:23.752Z,54.37
2022-09-24T13:05:02.827Z,54.38
2022-09-24T13:07:40.003Z,54.73
2022-09-24T13:10:24.014Z,54.91
2022-09-24T13:12:51.778Z,55.05
2022-09-24T13:15:38.721Z,55.39
2022-09-24T13:18:11.052Z,56.95
2022-09-24T13:20:49.278Z,57.13
2022-09-24T13:23:22.694Z,57.26
2022-09-24T13:25:57.028Z,57.50
2022-09-24T13:28:37.809Z,58.11
2022-09-24T13:31:21.164Z,57.68
2022-09-24T13:33:52.488Z,57.27
2022-09-24T13:36:28.098Z,56.61
2022-09-24T13:39:14.792Z,56.16
2022-09-24T13:42:36.652Z,56.89
2022-09-24T13:45:09.937Z,57.35
2022-09-24T13:47:51.923Z,57.80
2022-09-24T13:50:32.451Z,59.04
2022-09-24T13:53:15.873Z,58.92
2022-09-24T13:55:53.706Z,59.51
2022-09-24T13:58:32.879Z,59.93
2022-09-24T14:01:12.540Z,59.43
2022-09-24T14:03:40.235Z,59.51
2022-09-24T14:06:15.877Z,59.63
2022-09-24T14:08:45.503Z,59.98
2022-09-24T14:11:18.764Z,59.97
2022-09-24T14:13:46.121Z,59.60
2022-09-24T14:16:22.651Z,59.76
2022-09-24T14:18:49.660Z,59.41
2022-09-24T14:21:27.613Z,59.62
2022-09-24T14:24:08.753Z,59.26
2022-09-24T14:26:46.488Z,60.46
2022-09-24T14:29:21.667Z,60.01
2022-09-24T14:32:02.072Z,60.75
2022-09-24T14:34:39.985Z,61.22
2022-09-24T14:37:21.650Z,61.27
2022-09-24T14:39:57.843Z,61.54
2022-09-24T14:42:47.909Z,61.39
2022-09-24T14:45:28.522Z,61.84
2022-09-24T14:48:28.954Z,61.81
2022-09-24T14:50:56.090Z,61.78
2022-09-24T14:53:34.559Z,61.84
2022-09-24T14:56:31.866Z,62.09
2022-09-24T14:58:59.573Z,62.30
2022-09-24T15:01:33.612Z,62.35
2022-09-24T15:04:05.816Z,61.60
2022-09-24T15:06:35.812Z,61.58
2022-09-24T15:09:29.119Z,61.56
2022-09-24T15:12:09.297Z,61.84
2022-09-24T15:14:36.687Z,62.06
2022-09-24T15:17:21.060Z,62.49
2022-09-24T15:19:47.867Z,62.54
2022-09-24T15:22:15.295Z,62.53
2022-09-24T15:24:42.074Z,62.82
2022-09-24T15:27:29.328Z,62.71
2022-09-24T15:29:59.522Z,62.99
2022-09-24T15:32:29.168Z,62.78
2022-09-24T15:34:57.038Z,64.36
2022-09-24T15:37:29.423Z,63.61
2022-09-24T15:40:07.226Z,64.49
2022-09-24T15:42:34.185Z,64.60
2022-09-24T15:45:01.009Z,65.27
2022-09-24T15:47:28.035Z,65.88
2022-09-24T15:49:54.851Z,65.88
2022-09-24T15:52:26.788Z,66.13
2022-09-24T15:54:58.891Z,66.51
2022-09-24T15:57:28.552Z,66.59
2022-09-24T15:59:55.388Z,66.78
2022-09-24T16:02:27.644Z,66.85
2022-09-24T16:04:54.607Z,67.09
2022-09-24T16:07:21.486Z,67.49
2022-09-24T16:09:48.342Z,68.24
2022-09-24T16:12:19.768Z,68.47
2022-09-24T16:14:47.176Z,68.96
2022-09-24T16:17:14.021Z,70.86
2022-09-24T16:19:40.828Z,72.16
2022-09-24T16:22:07.630Z,73.59
2022-09-24T16:24:35.053Z,75.02
2022-09-24T16:27:02.114Z,76.33
2022-09-24T16:29:28.917Z,78.02
2022-09-24T16:31:55.753Z,75.88
2022-09-24T16:34:22.630Z,73.87
2022-09-24T16:36:49.478Z,73.38
2022-09-24T16:39:16.272Z,74.31
2022-09-24T16:41:44.341Z,72.12
2022-09-24T16:44:14.950Z,73.17
2022-09-24T16:46:43.030Z,72.61
2022-09-24T16:49:10.520Z,72.22
2022-09-24T16:51:38.171Z,73.76
2022-09-24T16:54:05.823Z,76.81
2022-09-24T16:56:32.929Z,78.58
2022-09-24T16:58:59.813Z,78.86
2022-09-24T17:01:26.715Z,80.37
2022-09-24T17:03:55.931Z,83.78
2022-09-24T17:06:29.541Z,83.90
2022-09-24T17:09:15.249Z,81.95
2022-09-24T17:11:42.395Z,81.96
2022-09-24T17:14:13.134Z,82.82
2022-09-24T17:16:41.263Z,83.42
2022-09-24T17:19:12.417Z,83.67
2022-09-24T17:21:42.317Z,83.58
2022-09-24T17:24:10.034Z,83.46
2022-09-24T17:26:38.243Z,82.23
2022-09-24T17:29:05.496Z,82.97
2022-09-24T17:31:32.480Z,84.26
2022-09-24T17:34:10.205Z,85.97
2022-09-24T17:36:37.260Z,85.97
2022-09-24T17:39:05.791Z,84.30
2022-09-24T17:41:33.226Z,84.15
2022-09-24T17:44:00.544Z,83.33
2022-09-24T17:46:30.722Z,80.79
2022-09-24T17:49:00.238Z,81.18
2022-09-24T17:51:34.394Z,80.48
2022-09-24T17:54:06.455Z,82.20
2022-09-24T17:56:38.630Z,83.19
2022-09-24T17:59:07.432Z,83.85
2022-09-24T18:01:36.921Z,84.35
2022-09-24T18:04:06.898Z,84.19
2022-09-24T18:06:37.791Z,80.98
2022-09-24T18:09:05.355Z,81.69
2022-09-24T18:11:51.273Z,82.05
2022-09-24T18:14:21.420Z,82.71
2022-09-24T18:16:49.266Z,81.13
2022-09-24T18:19:17.419Z,81.22
2022-09-24T18:21:45.999Z,80.34
2022-09-24T18:24:12.937Z,78.97
2022-09-24T18:26:40.597Z,78.51
2022-09-24T18:29:13.588Z,79.92
2022-09-24T18:31:41.285Z,81.07
2022-09-24T18:34:12.942Z,83.30
2022-09-24T18:36:41.472Z,83.33
2022-09-24T18:39:13.156Z,85.45
2022-09-24T18:41:41.517Z,86.41
2022-09-24T18:44:10.333Z,87.07
2022-09-24T18:46:37.429Z,86.94
2022-09-24T18:49:06.215Z,87.39
2022-09-24T18:51:37.019Z,87.63
2022-09-24T18:54:06.820Z,87.30
2022-09-24T18:56:34.620Z,87.81
2022-09-24T18:59:14.656Z,86.63
2022-09-24T19:01:43.087Z,86.12
2022-09-24T19:04:12.188Z,86.76
2022-09-24T19:06:42.212Z,85.97
2022-09-24T19:09:10.992Z,86.08
2022-09-24T19:11:40.440Z,84.02
2022-09-24T19:14:07.302Z,84.07
2022-09-24T19:16:34.206Z,84.78
2022-09-24T19:19:01.689Z,85.56
2022-09-24T19:21:28.507Z,84.33
2022-09-24T19:23:57.516Z,83.92
2022-09-24T19:26:28.008Z,83.23
2022-09-24T19:28:55.050Z,84.38
2022-09-24T19:31:32.066Z,85.21
2022-09-24T19:34:03.272Z,86.19
2022-09-24T19:36:31.410Z,87.54
2022-09-24T19:38:58.203Z,87.81
2022-09-24T19:41:27.044Z,89.02
2022-09-24T19:43:57.756Z,87.15
2022-09-24T19:46:27.029Z,86.73
2022-09-24T19:48:56.130Z,87.89
2022-09-24T19:51:26.516Z,91.18
2022-09-24T19:53:56.440Z,94.33
2022-09-24T19:56:25.291Z,96.57
2022-09-24T19:58:54.462Z,98.06
2022-09-24T20:01:24.308Z,98.19
2022-09-24T20:03:51.645Z,97.72
2022-09-24T20:06:22.697Z,98.20
2022-09-24T20:08:50.031Z,97.13
2022-09-24T20:11:22.222Z,96.72
2022-09-24T20:13:50.978Z,97.66
2022-09-24T20:16:21.770Z,97.00
2022-09-24T20:18:50.860Z,96.42
2022-09-24T20:21:19.392Z,97.26
2022-09-24T20:23:47.839Z,97.17
2022-09-24T20:26:35.195Z,98.15
2022-09-24T20:29:03.079Z,98.49
2022-09-24T20:31:30.149Z,99.22
2022-09-24T20:33:57.146Z,97.75
2022-09-24T20:36:25.347Z,98.04
2022-09-24T20:38:53.128Z,97.58
2022-09-24T20:41:23.867Z,97.17
2022-09-24T20:43:55.051Z,98.12
2022-09-24T20:46:25.825Z,97.54
2022-09-24T20:48:57.996Z,97.14
2022-09-24T20:51:27.847Z,97.30
2022-09-24T20:53:55.291Z,95.37
2022-09-24T20:56:22.520Z,95.85
2022-09-24T20:58:52.938Z,96.29
2022-09-24T21:01:21.061Z,96.14
2022-09-24T21:03:49.990Z,95.79
2022-09-24T21:06:20.682Z,96.43
2022-09-24T21:08:49.921Z,96.88
2022-09-24T21:11:25.115Z,97.39
2022-09-24T21:13:54.916Z,96.62
2022-09-24T21:16:25.035Z,96.90
2022-09-24T21:18:54.531Z,97.22
2022-09-24T21:21:41.971Z,96.10
2022-09-24T21:24:14.359Z,97.18
2022-09-24T21:26:45.611Z,96.67
2022-09-24T21:29:21.765Z,96.98
2022-09-24T21:31:48.984Z,97.28
2022-09-24T21:34:20.562Z,96.72
2022-09-24T21:36:49.829Z,96.60
2022-09-24T21:39:23.790Z,96.35
2022-09-24T21:41:55.021Z,96.59
2022-09-24T21:44:21.949Z,96.81
2022-09-24T21:46:52.167Z,96.66
2022-09-24T21:49:20.220Z,96.97
2022-09-24T21:51:47.634Z,95.99
2022-09-24T21:54:20.434Z,95.29
2022-09-24T21:56:47.926Z,94.93
2022-09-24T21:59:34.972Z,94.96
2022-09-24T22:02:03.421Z,94.98
2022-09-24T22:04:32.578Z,95.12
2022-09-24T22:06:59.987Z,94.89
2022-09-24T22:09:26.843Z,95.36
2022-09-24T22:11:56.184Z,96.29
2022-09-24T22:14:23.584Z,95.51
2022-09-24T22:16:50.891Z,96.20
2022-09-24T22:19:18.188Z,95.48
2022-09-24T22:21:45.060Z,95.96
2022-09-24T22:24:12.162Z,95.96
2022-09-24T22:26:39.198Z,96.71
2022-09-24T22:29:06.122Z,96.38
2022-09-24T22:31:33.644Z,95.51
2022-09-24T22:34:19.305Z,96.13
2022-09-24T22:36:47.936Z,95.62
2022-09-24T22:39:15.479Z,95.59
2022-09-24T22:41:43.381Z,95.86
2022-09-24T22:44:12.134Z,96.55
2022-09-24T22:46:40.280Z,96.21
2022-09-24T22:49:08.207Z,95.74
2022-09-24T22:51:38.176Z,95.86
2022-09-24T22:54:05.872Z,95.71
2022-09-24T22:56:34.486Z,96.03
2022-09-24T22:59:01.478Z,95.35
2022-09-24T23:01:43.093Z,96.17
2022-09-24T23:04:14.754Z,95.70
2022-09-24T23:06:43.659Z,95.83
2022-09-24T23:09:11.639Z,96.47
2022-09-24T23:11:39.128Z,96.78
2022-09-24T23:14:16.477Z,96.94
2022-09-24T23:16:44.305Z,96.61
2022-09-24T23:19:16.217Z,97.20
2022-09-24T23:21:43.737Z,97.24
2022-09-24T23:24:17.593Z,96.02
2022-09-24T23:26:46.006Z,96.63
2022-09-24T23:29:13.856Z,96.03
2022-09-24T23:31:41.231Z,96.05
2022-09-24T23:34:10.898Z,96.91
2022-09-24T23:36:37.758Z,96.90
2022-09-24T23:39:05.478Z,96.86
2022-09-24T23:41:32.421Z,97.32
2022-09-24T23:44:00.112Z,96.95
2022-09-24T23:46:27.566Z,96.45
2022-09-24T23:48:55.473Z,97.01
2022-09-24T23:51:22.756Z,95.85
2022-09-24T23:53:49.609Z,95.42
2022-09-24T23:56:16.439Z,95.33
2022-09-24T23:58:43.379Z,95.50
